Centaurus Dream — 7JPG — position and weather

sailwx.info

Track history (hours):
 
Tides and Currents Weather Stations Pressure Air Temp Water Temp Dewpoint Dewpoint Depression Visibility Wind Speed Wind Dir Waves Ship Positions

Centaurus Dream

Last reported at 2018-Apr-25 11:51 UTC. Time now 2018-Apr-27 02:40 UTC.
Position N 35°31' W 126°38'.

Length 292 m; draft 18.1 m.

Type: Cargo ship. MMSI: 432950000.

Date/timePositionNaut miles runAvg speedWind from/ knotsBaromVisibWave heightAir tempDewpointWater temp
2018-Apr-25 11:51N 35°31' W 126°38'1912.3
2018-Apr-25 10:18N 35°48' W 126°49'1612.3
2018-Apr-25 09:01N 36°02' W 126°58'012.3
2018-Apr-25 09:00N 36°02' W 126°58'612.2
2018-Apr-25 08:30N 36°08' W 127°02'2312.5
2018-Apr-25 06:41N 36°28' W 127°13'212.3
2018-Apr-25 06:30N 36°30' W 127°14'612.2
2018-Apr-25 06:00N 36°36' W 127°18'1212.1
2018-Apr-25 05:00N 36°47' W 127°24'712.2
2018-Apr-25 04:27N 36°53' W 127°27'612.2
2018-Apr-25 03:59N 36°58' W 127°30'4312.0
2018-Apr-25 00:22N 37°38' W 127°53'411.3
2018-Apr-24 23:59N 37°42' W 127°55'511.3
2018-Apr-24 23:30N 37°47' W 127°58'611.1
2018-Apr-24 23:00N 37°52' W 128°01'611.2
2018-Apr-24 22:30N 37°57' W 128°04'611.6
2018-Apr-24 22:00N 38°02' W 128°07'611.8
2018-Apr-24 21:30N 38°07' W 128°10'2912.1
2018-Apr-24 19:06N 38°34' W 128°25'112.2
2018-Apr-24 19:00N 38°35' W 128°26'8012.1
2018-Apr-24 12:24N 39°48' W 129°08'3012.0
2018-Apr-24 09:55N 40°17' W 129°12'24111.7
2018-Apr-23 13:24N 44°18' W 129°27'512.0
2018-Apr-23 12:59N 44°23' W 129°26'6311.9
2018-Apr-23 07:39N 45°25' W 129°12'211.6
2018-Apr-23 07:30N 45°27' W 129°12'233 9.4
2018-Apr-22 06:36N 48°25' W 125°31'1 9.5
2018-Apr-22 06:30N 48°25' W 125°30'5 9.3
2018-Apr-22 06:00N 48°28' W 125°25'4 8.6
2018-Apr-22 05:30N 48°31' W 125°20'4 8.4
2018-Apr-22 05:00N 48°31' W 125°13'4 8.5
2018-Apr-22 04:29N 48°31' W 125°07'4 8.6
2018-Apr-22 04:00N 48°31' W 125°00'5 8.5
2018-Apr-22 03:28N 48°31' W 124°53'4 7.9
2018-Apr-22 03:00N 48°30' W 124°48'4 7.6
2018-Apr-22 02:30N 48°30' W 124°42'4 7.4
2018-Apr-22 02:00N 48°29' W 124°37'4 7.4
2018-Apr-22 01:30N 48°27' W 124°32'4 7.7
2018-Apr-22 01:00N 48°26' W 124°26'4 7.8
2018-Apr-22 00:30N 48°24' W 124°21'4 8.6
2018-Apr-22 00:00N 48°23' W 124°15'5 9.1
2018-Apr-21 23:30N 48°21' W 124°09'5 9.4
2018-Apr-21 23:00N 48°19' W 124°02'510.1
2018-Apr-21 22:29N 48°17' W 123°55'611.1
2018-Apr-21 21:58N 48°17' W 123°46'17 9.9
2018-Apr-21 20:15N 48°23' W 123°22'311.2
2018-Apr-21 20:00N 48°23' W 123°18'612.3
2018-Apr-21 19:30N 48°27' W 123°12'816.1
2018-Apr-21 19:00N 48°35' W 123°14'714.1
2018-Apr-21 18:30N 48°43' W 123°14'815.0
2018-Apr-21 17:58N 48°46' W 123°03'612.0
2018-Apr-21 17:29N 48°52' W 123°01'713.4
2018-Apr-21 16:58N 48°57' W 123°07'4 8.2
2018-Apr-21 16:31N 49°01' W 123°09'0 0.2
2018-Apr-21 16:00N 49°01' W 123°09'0 0.0
2018-Apr-21 15:30N 49°01' W 123°09'0 0.0
2018-Apr-21 15:00N 49°01' W 123°09'0 0.0
2018-Apr-21 14:30N 49°01' W 123°09'0 0.0
2018-Apr-21 14:00N 49°01' W 123°09'0 0.0
2018-Apr-21 13:30N 49°01' W 123°09'0 0.0
2018-Apr-21 13:00N 49°01' W 123°09'0 0.0
2018-Apr-21 12:30N 49°01' W 123°09'0 0.0
2018-Apr-21 12:00N 49°01' W 123°09'0 0.0
2018-Apr-21 11:30N 49°01' W 123°09'0 0.0
2018-Apr-21 11:00N 49°01' W 123°09'0 0.0
2018-Apr-21 10:30N 49°01' W 123°09'0 0.0
2018-Apr-21 10:00N 49°01' W 123°09'0 0.0
2018-Apr-21 09:30N 49°01' W 123°09'0 0.0
2018-Apr-21 09:00N 49°01' W 123°09'0 0.0
2018-Apr-21 08:30N 49°01' W 123°09'0 0.0
2018-Apr-21 07:18N 49°01' W 123°09'0 0.0
2018-Apr-21 07:00N 49°01' W 123°09'0 0.0
2018-Apr-21 06:30N 49°01' W 123°09'0 0.0
2018-Apr-21 02:06N 49°01' W 123°09'0 0.0
2018-Apr-21 01:36N 49°01' W 123°09'0 0.0
2018-Apr-21 01:30N 49°01' W 123°09'0 0.0
2018-Apr-21 01:00N 49°01' W 123°09'0 0.0
2018-Apr-21 00:21N 49°01' W 123°09'0 0.0
2018-Apr-21 00:00N 49°01' W 123°09'0 0.0
2018-Apr-20 23:30N 49°01' W 123°09'0 0.0
2018-Apr-20 23:00N 49°01' W 123°09'0 0.0
2018-Apr-20 22:21N 49°01' W 123°09'0 0.0
2018-Apr-20 22:00N 49°01' W 123°09'0 0.0
2018-Apr-20 21:27N 49°01' W 123°09'0 0.0
2018-Apr-20 21:00N 49°01' W 123°09'0 0.0
2018-Apr-20 20:24N 49°01' W 123°09'0 0.0
2018-Apr-20 19:57N 49°01' W 123°09'0 0.0
2018-Apr-20 19:24N 49°01' W 123°09'0 0.0
2018-Apr-20 17:39N 49°01' W 123°09'0 0.0
2018-Apr-20 17:27N 49°01' W 123°09'0 0.0
2018-Apr-20 16:57N 49°01' W 123°09'0 0.0
2018-Apr-20 16:27N 49°01' W 123°09'0 0.0
2018-Apr-20 16:00N 49°01' W 123°09'0 0.0
2018-Apr-20 15:27N 49°01' W 123°09'0 0.0
2018-Apr-20 15:00N 49°01' W 123°09'0 0.0
2018-Apr-20 14:27N 49°01' W 123°09'0 0.0
2018-Apr-20 13:57N 49°01' W 123°09'0 0.0
2018-Apr-20 13:30N 49°01' W 123°09'0 0.0
2018-Apr-20 13:00N 49°01' W 123°09'0 0.0
2018-Apr-20 12:30N 49°01' W 123°09'0 0.0
2018-Apr-20 12:00N 49°01' W 123°09'0 0.0
2018-Apr-20 11:30N 49°01' W 123°09'0 0.0
2018-Apr-20 11:00N 49°01' W 123°09'0 0.0
2018-Apr-20 10:27N 49°01' W 123°09'0 0.0
2018-Apr-20 10:00N 49°01' W 123°09'0 0.0
2018-Apr-20 09:30N 49°01' W 123°09'0 0.0
2018-Apr-20 09:00N 49°01' W 123°09'0 0.0
2018-Apr-20 08:30N 49°01' W 123°09'0 0.0
2018-Apr-20 08:00N 49°01' W 123°09'0 0.0
2018-Apr-20 07:30N 49°01' W 123°09'0 0.0
2018-Apr-20 06:57N 49°01' W 123°09'0 0.0
2018-Apr-20 06:24N 49°01' W 123°09'0 0.1
2018-Apr-20 06:00N 49°01' W 123°09'0 0.0
2018-Apr-20 05:06N 49°01' W 123°09'0 0.0
2018-Apr-20 04:54N 49°01' W 123°09'0 0.0
2018-Apr-20 04:24N 49°01' W 123°09'0 0.0
2018-Apr-20 03:54N 49°01' W 123°09'0 0.0
2018-Apr-20 03:24N 49°01' W 123°09'0 0.0
2018-Apr-20 02:51N 49°01' W 123°09'0 0.0
2018-Apr-20 02:15N 49°01' W 123°09'0 0.0
2018-Apr-20 01:51N 49°01' W 123°09'0 0.0
2018-Apr-20 01:30N 49°01' W 123°09'0 0.0
2018-Apr-20 00:57N 49°01' W 123°09'0 0.0
2018-Apr-20 00:27N 49°01' W 123°09'0 0.0
2018-Apr-20 00:00N 49°01' W 123°09'0 0.0
2018-Apr-19 23:30N 49°01' W 123°09'0 0.0
2018-Apr-19 22:57N 49°01' W 123°09'0 0.0
2018-Apr-19 22:30N 49°01' W 123°09'0 0.0
2018-Apr-19 22:00N 49°01' W 123°09'0 0.0
2018-Apr-19 21:30N 49°01' W 123°09'0 0.0
2018-Apr-19 21:00N 49°01' W 123°09'0 0.0
2018-Apr-19 20:15N 49°01' W 123°09'0 0.0
2018-Apr-19 19:57N 49°01' W 123°09'0 0.0
2018-Apr-19 19:27N 49°01' W 123°09'0 0.0
2018-Apr-19 18:57N 49°01' W 123°09'0 0.0
2018-Apr-19 18:27N 49°01' W 123°09'0 0.0
2018-Apr-19 18:00N 49°01' W 123°09'0 0.0
2018-Apr-19 17:30N 49°01' W 123°09'0 0.0
2018-Apr-19 17:00N 49°01' W 123°09'0 0.0
2018-Apr-19 16:30N 49°01' W 123°09'0 0.0
2018-Apr-19 16:00N 49°01' W 123°09'0 0.0
2018-Apr-19 15:27N 49°01' W 123°09'0 0.0
2018-Apr-19 14:57N 49°01' W 123°09'0 0.0
2018-Apr-19 14:30N 49°01' W 123°09'0 0.0
2018-Apr-19 14:00N 49°01' W 123°09'0 0.0
2018-Apr-19 13:30N 49°01' W 123°09'0 0.0
2018-Apr-19 13:00N 49°01' W 123°09'0 0.0
2018-Apr-19 12:30N 49°01' W 123°09'0 0.0
2018-Apr-19 12:00N 49°01' W 123°09'0 0.0
2018-Apr-19 11:30N 49°01' W 123°09'0 0.0
2018-Apr-19 11:00N 49°01' W 123°09'0 0.0
2018-Apr-19 10:30N 49°01' W 123°09'0 0.0
2018-Apr-19 10:00N 49°01' W 123°09'0 0.0
2018-Apr-19 09:30N 49°01' W 123°09'0 0.0
2018-Apr-19 09:00N 49°01' W 123°09'0 0.0
2018-Apr-19 08:30N 49°01' W 123°09'0 0.0
2018-Apr-19 08:00N 49°01' W 123°09'0 0.0
2018-Apr-19 07:30N 49°01' W 123°09'0 0.0
2018-Apr-19 07:00N 49°01' W 123°09'0 0.0
2018-Apr-19 06:30N 49°01' W 123°09'0 0.0
2018-Apr-19 06:00N 49°01' W 123°09'0 0.0
2018-Apr-19 05:30N 49°01' W 123°09'0 0.0
2018-Apr-19 05:00N 49°01' W 123°09'0 0.0
2018-Apr-19 04:30N 49°01' W 123°09'0 0.0
2018-Apr-19 04:00N 49°01' W 123°09'0 0.0
2018-Apr-19 03:30N 49°01' W 123°09'0 0.0
2018-Apr-19 03:00N 49°01' W 123°09'0 0.0
2018-Apr-19 02:30N 49°01' W 123°09'0 0.0
2018-Apr-19 02:00N 49°01' W 123°09'0 0.0
2018-Apr-19 01:30N 49°01' W 123°09'0 0.1
2018-Apr-19 01:00N 49°01' W 123°09'1 2.3
2018-Apr-19 00:30N 48°60' W 123°10'4 9.0
2018-Apr-19 00:01N 48°56' W 123°07'815.5
2018-Apr-18 23:30N 48°50' W 122°59'816.2
2018-Apr-18 23:00N 48°44' W 123°08'714.4
2018-Apr-18 22:30N 48°45' W 123°19'713.1
2018-Apr-18 22:00N 48°43' W 123°28'4 7.7
2018-Apr-18 21:30N 48°44' W 123°34'0 0.1
2018-Apr-18 20:58N 48°44' W 123°33'0 0.1
2018-Apr-18 20:28N 48°44' W 123°33'0 0.0
2018-Apr-18 19:58N 48°44' W 123°33'0 0.1
2018-Apr-18 19:28N 48°44' W 123°33'0 0.0
2018-Apr-18 18:58N 48°44' W 123°33'0 0.0
2018-Apr-18 18:28N 48°44' W 123°33'0 0.0
2018-Apr-18 17:58N 48°44' W 123°33'0 0.1
2018-Apr-18 17:28N 48°44' W 123°33'0 0.0
2018-Apr-18 16:58N 48°44' W 123°33'0 0.1
2018-Apr-18 16:28N 48°44' W 123°33'0 0.1
2018-Apr-18 15:58N 48°44' W 123°33'0 0.1
2018-Apr-18 15:28N 48°44' W 123°33'0 0.1
2018-Apr-18 14:58N 48°44' W 123°33'0 0.1
2018-Apr-18 14:28N 48°44' W 123°33'0 0.1
2018-Apr-18 13:58N 48°44' W 123°33'0 0.0
2018-Apr-18 13:28N 48°44' W 123°33'0 0.0
2018-Apr-18 12:58N 48°44' W 123°33'0 0.0
2018-Apr-18 12:28N 48°44' W 123°33'0 0.0
2018-Apr-18 11:58N 48°44' W 123°33'0 0.1
2018-Apr-18 11:28N 48°44' W 123°33'0 0.1
2018-Apr-18 10:58N 48°44' W 123°33'0 0.1
2018-Apr-18 10:28N 48°44' W 123°33'0 0.1
2018-Apr-18 09:58N 48°44' W 123°33'0 0.1
2018-Apr-18 09:28N 48°44' W 123°33'0 0.0
2018-Apr-18 08:58N 48°44' W 123°33'0 0.0
2018-Apr-18 08:28N 48°44' W 123°33'0 0.0
2018-Apr-18 07:58N 48°44' W 123°33'0 0.0
2018-Apr-18 07:28N 48°44' W 123°33'0 0.1
2018-Apr-18 06:58N 48°44' W 123°33'0 0.0
2018-Apr-18 06:28N 48°44' W 123°33'0 0.0
2018-Apr-18 05:58N 48°44' W 123°33'0 0.1
2018-Apr-18 05:28N 48°44' W 123°33'0 0.1
2018-Apr-18 04:58N 48°44' W 123°33'0 0.1
2018-Apr-18 04:28N 48°44' W 123°33'0 0.1
2018-Apr-18 03:58N 48°44' W 123°33'0 0.0
2018-Apr-18 03:28N 48°44' W 123°33'0 0.0
2018-Apr-18 02:58N 48°44' W 123°33'0 0.1
2018-Apr-18 02:28N 48°44' W 123°33'0 0.1
2018-Apr-18 01:58N 48°44' W 123°33'0 0.0
2018-Apr-18 01:28N 48°44' W 123°33'0 0.0
2018-Apr-18 00:58N 48°44' W 123°33'0 0.1
2018-Apr-18 00:28N 48°44' W 123°33'0 0.1
2018-Apr-17 23:58N 48°44' W 123°33'0 0.1
2018-Apr-17 23:28N 48°44' W 123°33'0 0.0
2018-Apr-17 22:58N 48°44' W 123°33'0 0.1
2018-Apr-17 22:28N 48°44' W 123°33'0 0.1
2018-Apr-17 21:58N 48°44' W 123°33'0 0.1
2018-Apr-17 21:28N 48°44' W 123°33'0 0.0
2018-Apr-17 20:58N 48°44' W 123°33'0 0.1
2018-Apr-17 20:28N 48°44' W 123°33'0 0.0
2018-Apr-17 19:58N 48°44' W 123°33'0 0.1
2018-Apr-17 19:28N 48°44' W 123°33'0 0.1
2018-Apr-17 18:58N 48°44' W 123°33'0 0.0
2018-Apr-17 18:28N 48°44' W 123°33'0 0.1
2018-Apr-17 17:58N 48°44' W 123°33'0 0.1
2018-Apr-17 17:28N 48°44' W 123°33'0 0.1
2018-Apr-17 16:58N 48°44' W 123°33'0 0.0
2018-Apr-17 16:28N 48°44' W 123°33'0 0.1
2018-Apr-17 15:58N 48°44' W 123°33'0 0.1
2018-Apr-17 15:28N 48°44' W 123°33'0 0.1
2018-Apr-17 14:58N 48°44' W 123°33'0 0.0
2018-Apr-17 14:28N 48°44' W 123°33'0 0.1
2018-Apr-17 13:58N 48°44' W 123°33'0 0.0
2018-Apr-17 13:28N 48°44' W 123°33'0 0.0
2018-Apr-17 12:58N 48°44' W 123°33'0 0.0
2018-Apr-17 12:28N 48°44' W 123°33'0 0.1
2018-Apr-17 11:58N 48°44' W 123°33'0 0.0
2018-Apr-17 11:28N 48°44' W 123°33'0 0.1
2018-Apr-17 10:58N 48°44' W 123°33'0 0.0
2018-Apr-17 10:28N 48°44' W 123°33'0 0.0
2018-Apr-17 09:58N 48°44' W 123°33'0 0.0
2018-Apr-17 09:28N 48°44' W 123°33'0 0.1
2018-Apr-17 08:58N 48°44' W 123°33'0 0.0
2018-Apr-17 08:28N 48°44' W 123°33'0 0.0
2018-Apr-17 07:58N 48°44' W 123°33'0 0.0
2018-Apr-17 07:28N 48°44' W 123°33'0 0.0
2018-Apr-17 06:58N 48°44' W 123°33'0 0.1
2018-Apr-17 06:28N 48°44' W 123°33'0 0.0
2018-Apr-17 05:58N 48°44' W 123°33'0 0.0
2018-Apr-17 05:28N 48°44' W 123°33'0 0.0
2018-Apr-17 04:58N 48°44' W 123°33'0 0.1
2018-Apr-17 04:25N 48°44' W 123°33'0 0.1
2018-Apr-17 03:58N 48°44' W 123°33'0 0.1
2018-Apr-17 03:28N 48°44' W 123°33'0 0.1
2018-Apr-17 02:58N 48°44' W 123°33'0 0.0
2018-Apr-17 02:28N 48°44' W 123°33'0 0.1
2018-Apr-17 01:55N 48°44' W 123°33'0 0.0
2018-Apr-17 01:28N 48°44' W 123°33'0 0.2
2018-Apr-17 00:58N 48°44' W 123°33'0 0.2
2018-Apr-17 00:28N 48°44' W 123°34'0 0.1
2018-Apr-16 23:58N 48°44' W 123°34'0 0.0
2018-Apr-16 23:28N 48°44' W 123°34'0 0.1
2018-Apr-16 22:58N 48°44' W 123°34'0 0.2
2018-Apr-16 22:28N 48°44' W 123°33'0 0.1
2018-Apr-16 21:58N 48°44' W 123°33'0 0.0
2018-Apr-16 21:28N 48°44' W 123°33'0 0.0
2018-Apr-16 20:58N 48°44' W 123°33'0 0.0
2018-Apr-16 20:28N 48°44' W 123°33'0 0.0
2018-Apr-16 19:58N 48°44' W 123°33'0 0.0
2018-Apr-16 19:28N 48°44' W 123°33'0 0.0
2018-Apr-16 18:58N 48°44' W 123°33'0 0.0
2018-Apr-16 18:28N 48°44' W 123°33'0 0.1
2018-Apr-16 17:58N 48°44' W 123°33'0 0.0
2018-Apr-16 17:28N 48°44' W 123°33'0 0.0
2018-Apr-16 16:58N 48°44' W 123°33'0 0.0
2018-Apr-16 16:28N 48°44' W 123°33'0 0.1
2018-Apr-16 15:58N 48°44' W 123°33'0 0.2
2018-Apr-16 15:28N 48°44' W 123°33'0 0.1
2018-Apr-16 14:58N 48°44' W 123°33'0 0.1
2018-Apr-16 14:28N 48°44' W 123°33'0 0.1
2018-Apr-16 13:58N 48°44' W 123°33'0 0.0
2018-Apr-16 13:28N 48°44' W 123°33'0 0.1
2018-Apr-16 12:58N 48°44' W 123°33'0 0.0
2018-Apr-16 12:28N 48°44' W 123°33'0 0.0
2018-Apr-16 11:58N 48°44' W 123°33'0 0.0
2018-Apr-16 11:28N 48°44' W 123°33'0 0.1
2018-Apr-16 10:58N 48°44' W 123°33'0 0.0
2018-Apr-16 10:28N 48°44' W 123°33'0 0.0
2018-Apr-16 09:58N 48°44' W 123°33'0 0.0
2018-Apr-16 09:28N 48°44' W 123°33'0 0.0
2018-Apr-16 08:58N 48°44' W 123°33'0 0.1
2018-Apr-16 08:28N 48°44' W 123°33'0 0.0
2018-Apr-16 07:58N 48°44' W 123°33'0 0.0
2018-Apr-16 07:28N 48°44' W 123°33'0 0.0
2018-Apr-16 06:58N 48°44' W 123°33'0 0.1
2018-Apr-16 06:28N 48°44' W 123°33'0 0.0
2018-Apr-16 05:58N 48°44' W 123°33'0 0.1
2018-Apr-16 05:28N 48°44' W 123°33'0 0.0
2018-Apr-16 04:58N 48°44' W 123°33'0 0.1
2018-Apr-16 04:28N 48°44' W 123°33'0 0.0
2018-Apr-16 03:58N 48°44' W 123°33'0 0.0
2018-Apr-16 03:28N 48°44' W 123°33'0 0.1
2018-Apr-16 02:58N 48°44' W 123°33'0 0.0
2018-Apr-16 02:28N 48°44' W 123°33'0 0.0
2018-Apr-16 01:58N 48°44' W 123°33'0 0.0
2018-Apr-16 01:28N 48°44' W 123°33'0 0.1
2018-Apr-16 00:58N 48°44' W 123°33'0 0.0
2018-Apr-16 00:28N 48°44' W 123°33'0 0.1
2018-Apr-15 23:58N 48°44' W 123°33'0 0.1
2018-Apr-15 23:28N 48°44' W 123°33'0 0.0
2018-Apr-15 22:58N 48°44' W 123°33'0 0.1
2018-Apr-15 22:28N 48°44' W 123°33'0 0.0
2018-Apr-15 21:58N 48°44' W 123°33'0 0.1
2018-Apr-15 21:28N 48°44' W 123°33'0 0.0
2018-Apr-15 20:58N 48°44' W 123°33'0 0.0
2018-Apr-15 20:25N 48°44' W 123°33'0 0.0
2018-Apr-15 19:58N 48°44' W 123°33'0 0.0
2018-Apr-15 19:28N 48°44' W 123°33'0 0.0
2018-Apr-15 18:58N 48°44' W 123°33'0 0.1
2018-Apr-15 18:28N 48°44' W 123°33'0 0.1
2018-Apr-15 17:58N 48°44' W 123°33'0 0.0
2018-Apr-15 17:28N 48°44' W 123°33'0 0.1
2018-Apr-15 16:58N 48°44' W 123°33'0 0.0
2018-Apr-15 16:28N 48°44' W 123°33'0 0.0
2018-Apr-15 15:58N 48°44' W 123°33'0 0.1
2018-Apr-15 15:28N 48°44' W 123°33'0 0.0
2018-Apr-15 14:58N 48°44' W 123°33'0 0.0
2018-Apr-15 14:28N 48°44' W 123°33'0 0.1
2018-Apr-15 13:58N 48°44' W 123°33'0 0.0
2018-Apr-15 13:28N 48°44' W 123°33'0 0.0
2018-Apr-15 12:58N 48°44' W 123°33'0 0.0
2018-Apr-15 12:28N 48°44' W 123°33'0 0.0
2018-Apr-15 11:58N 48°44' W 123°33'  
Track history (hours):
 
Tides and Currents Weather Stations Pressure Air Temp Water Temp Dewpoint Dewpoint Depression Visibility Wind Speed Wind Dir Waves Ship Positions

Centaurus Dream

Last reported at 2018-Apr-25 11:51 UTC. Time now 2018-Apr-27 02:40 UTC.
Position N 35°31' W 126°38'.

Length 292 m; draft 18.1 m.

Type: Cargo ship. MMSI: 432950000.

Date/timePositionNaut miles runAvg speedWind from/ knotsBaromVisibWave heightAir tempDewpointWater temp
2018-Apr-25 11:51N 35°31' W 126°38'1912.3
2018-Apr-25 10:18N 35°48' W 126°49'1612.3
2018-Apr-25 09:01N 36°02' W 126°58'012.3
2018-Apr-25 09:00N 36°02' W 126°58'612.2
2018-Apr-25 08:30N 36°08' W 127°02'2312.5
2018-Apr-25 06:41N 36°28' W 127°13'212.3
2018-Apr-25 06:30N 36°30' W 127°14'612.2
2018-Apr-25 06:00N 36°36' W 127°18'1212.1
2018-Apr-25 05:00N 36°47' W 127°24'712.2
2018-Apr-25 04:27N 36°53' W 127°27'612.2
2018-Apr-25 03:59N 36°58' W 127°30'4312.0
2018-Apr-25 00:22N 37°38' W 127°53'411.3
2018-Apr-24 23:59N 37°42' W 127°55'511.3
2018-Apr-24 23:30N 37°47' W 127°58'611.1
2018-Apr-24 23:00N 37°52' W 128°01'611.2
2018-Apr-24 22:30N 37°57' W 128°04'611.6
2018-Apr-24 22:00N 38°02' W 128°07'611.8
2018-Apr-24 21:30N 38°07' W 128°10'2912.1
2018-Apr-24 19:06N 38°34' W 128°25'112.2
2018-Apr-24 19:00N 38°35' W 128°26'8012.1
2018-Apr-24 12:24N 39°48' W 129°08'3012.0
2018-Apr-24 09:55N 40°17' W 129°12'24111.7
2018-Apr-23 13:24N 44°18' W 129°27'512.0
2018-Apr-23 12:59N 44°23' W 129°26'6311.9
2018-Apr-23 07:39N 45°25' W 129°12'211.6
2018-Apr-23 07:30N 45°27' W 129°12'233 9.4
2018-Apr-22 06:36N 48°25' W 125°31'1 9.5
2018-Apr-22 06:30N 48°25' W 125°30'5 9.3
2018-Apr-22 06:00N 48°28' W 125°25'4 8.6
2018-Apr-22 05:30N 48°31' W 125°20'4 8.4
2018-Apr-22 05:00N 48°31' W 125°13'4 8.5
2018-Apr-22 04:29N 48°31' W 125°07'4 8.6
2018-Apr-22 04:00N 48°31' W 125°00'5 8.5
2018-Apr-22 03:28N 48°31' W 124°53'4 7.9
2018-Apr-22 03:00N 48°30' W 124°48'4 7.6
2018-Apr-22 02:30N 48°30' W 124°42'4 7.4
2018-Apr-22 02:00N 48°29' W 124°37'4 7.4
2018-Apr-22 01:30N 48°27' W 124°32'4 7.7
2018-Apr-22 01:00N 48°26' W 124°26'4 7.8
2018-Apr-22 00:30N 48°24' W 124°21'4 8.6
2018-Apr-22 00:00N 48°23' W 124°15'5 9.1
2018-Apr-21 23:30N 48°21' W 124°09'5 9.4
2018-Apr-21 23:00N 48°19' W 124°02'510.1
2018-Apr-21 22:29N 48°17' W 123°55'611.1
2018-Apr-21 21:58N 48°17' W 123°46'17 9.9
2018-Apr-21 20:15N 48°23' W 123°22'311.2
2018-Apr-21 20:00N 48°23' W 123°18'612.3
2018-Apr-21 19:30N 48°27' W 123°12'816.1
2018-Apr-21 19:00N 48°35' W 123°14'714.1
2018-Apr-21 18:30N 48°43' W 123°14'815.0
2018-Apr-21 17:58N 48°46' W 123°03'612.0
2018-Apr-21 17:29N 48°52' W 123°01'713.4
2018-Apr-21 16:58N 48°57' W 123°07'4 8.2
2018-Apr-21 16:31N 49°01' W 123°09'0 0.2
2018-Apr-21 16:00N 49°01' W 123°09'0 0.0
2018-Apr-21 15:30N 49°01' W 123°09'0 0.0
2018-Apr-21 15:00N 49°01' W 123°09'0 0.0
2018-Apr-21 14:30N 49°01' W 123°09'0 0.0
2018-Apr-21 14:00N 49°01' W 123°09'0 0.0
2018-Apr-21 13:30N 49°01' W 123°09'0 0.0
2018-Apr-21 13:00N 49°01' W 123°09'0 0.0
2018-Apr-21 12:30N 49°01' W 123°09'0 0.0
2018-Apr-21 12:00N 49°01' W 123°09'0 0.0
2018-Apr-21 11:30N 49°01' W 123°09'0 0.0
2018-Apr-21 11:00N 49°01' W 123°09'0 0.0
2018-Apr-21 10:30N 49°01' W 123°09'0 0.0
2018-Apr-21 10:00N 49°01' W 123°09'0 0.0
2018-Apr-21 09:30N 49°01' W 123°09'0 0.0
2018-Apr-21 09:00N 49°01' W 123°09'0 0.0
2018-Apr-21 08:30N 49°01' W 123°09'0 0.0
2018-Apr-21 07:18N 49°01' W 123°09'0 0.0
2018-Apr-21 07:00N 49°01' W 123°09'0 0.0
2018-Apr-21 06:30N 49°01' W 123°09'0 0.0
2018-Apr-21 02:06N 49°01' W 123°09'0 0.0
2018-Apr-21 01:36N 49°01' W 123°09'0 0.0
2018-Apr-21 01:30N 49°01' W 123°09'0 0.0
2018-Apr-21 01:00N 49°01' W 123°09'0 0.0
2018-Apr-21 00:21N 49°01' W 123°09'0 0.0
2018-Apr-21 00:00N 49°01' W 123°09'0 0.0
2018-Apr-20 23:30N 49°01' W 123°09'0 0.0
2018-Apr-20 23:00N 49°01' W 123°09'0 0.0
2018-Apr-20 22:21N 49°01' W 123°09'0 0.0
2018-Apr-20 22:00N 49°01' W 123°09'0 0.0
2018-Apr-20 21:27N 49°01' W 123°09'0 0.0
2018-Apr-20 21:00N 49°01' W 123°09'0 0.0
2018-Apr-20 20:24N 49°01' W 123°09'0 0.0
2018-Apr-20 19:57N 49°01' W 123°09'0 0.0
2018-Apr-20 19:24N 49°01' W 123°09'0 0.0
2018-Apr-20 17:39N 49°01' W 123°09'0 0.0
2018-Apr-20 17:27N 49°01' W 123°09'0 0.0
2018-Apr-20 16:57N 49°01' W 123°09'0 0.0
2018-Apr-20 16:27N 49°01' W 123°09'0 0.0
2018-Apr-20 16:00N 49°01' W 123°09'0 0.0
2018-Apr-20 15:27N 49°01' W 123°09'0 0.0
2018-Apr-20 15:00N 49°01' W 123°09'0 0.0
2018-Apr-20 14:27N 49°01' W 123°09'0 0.0
2018-Apr-20 13:57N 49°01' W 123°09'0 0.0
2018-Apr-20 13:30N 49°01' W 123°09'0 0.0
2018-Apr-20 13:00N 49°01' W 123°09'0 0.0
2018-Apr-20 12:30N 49°01' W 123°09'0 0.0
2018-Apr-20 12:00N 49°01' W 123°09'0 0.0
2018-Apr-20 11:30N 49°01' W 123°09'0 0.0
2018-Apr-20 11:00N 49°01' W 123°09'0 0.0
2018-Apr-20 10:27N 49°01' W 123°09'0 0.0
2018-Apr-20 10:00N 49°01' W 123°09'0 0.0
2018-Apr-20 09:30N 49°01' W 123°09'0 0.0
2018-Apr-20 09:00N 49°01' W 123°09'0 0.0
2018-Apr-20 08:30N 49°01' W 123°09'0 0.0
2018-Apr-20 08:00N 49°01' W 123°09'0 0.0
2018-Apr-20 07:30N 49°01' W 123°09'0 0.0
2018-Apr-20 06:57N 49°01' W 123°09'0 0.0
2018-Apr-20 06:24N 49°01' W 123°09'0 0.1
2018-Apr-20 06:00N 49°01' W 123°09'0 0.0
2018-Apr-20 05:06N 49°01' W 123°09'0 0.0
2018-Apr-20 04:54N 49°01' W 123°09'0 0.0
2018-Apr-20 04:24N 49°01' W 123°09'0 0.0
2018-Apr-20 03:54N 49°01' W 123°09'0 0.0
2018-Apr-20 03:24N 49°01' W 123°09'0 0.0
2018-Apr-20 02:51N 49°01' W 123°09'0 0.0
2018-Apr-20 02:15N 49°01' W 123°09'0 0.0
2018-Apr-20 01:51N 49°01' W 123°09'0 0.0
2018-Apr-20 01:30N 49°01' W 123°09'0 0.0
2018-Apr-20 00:57N 49°01' W 123°09'0 0.0
2018-Apr-20 00:27N 49°01' W 123°09'0 0.0
2018-Apr-20 00:00N 49°01' W 123°09'0 0.0
2018-Apr-19 23:30N 49°01' W 123°09'0 0.0
2018-Apr-19 22:57N 49°01' W 123°09'0 0.0
2018-Apr-19 22:30N 49°01' W 123°09'0 0.0
2018-Apr-19 22:00N 49°01' W 123°09'0 0.0
2018-Apr-19 21:30N 49°01' W 123°09'0 0.0
2018-Apr-19 21:00N 49°01' W 123°09'0 0.0
2018-Apr-19 20:15N 49°01' W 123°09'0 0.0
2018-Apr-19 19:57N 49°01' W 123°09'0 0.0
2018-Apr-19 19:27N 49°01' W 123°09'0 0.0
2018-Apr-19 18:57N 49°01' W 123°09'0 0.0
2018-Apr-19 18:27N 49°01' W 123°09'0 0.0
2018-Apr-19 18:00N 49°01' W 123°09'0 0.0
2018-Apr-19 17:30N 49°01' W 123°09'0 0.0
2018-Apr-19 17:00N 49°01' W 123°09'0 0.0
2018-Apr-19 16:30N 49°01' W 123°09'0 0.0
2018-Apr-19 16:00N 49°01' W 123°09'0 0.0
2018-Apr-19 15:27N 49°01' W 123°09'0 0.0
2018-Apr-19 14:57N 49°01' W 123°09'0 0.0
2018-Apr-19 14:30N 49°01' W 123°09'0 0.0
2018-Apr-19 14:00N 49°01' W 123°09'0 0.0
2018-Apr-19 13:30N 49°01' W 123°09'0 0.0
2018-Apr-19 13:00N 49°01' W 123°09'0 0.0
2018-Apr-19 12:30N 49°01' W 123°09'0 0.0
2018-Apr-19 12:00N 49°01' W 123°09'0 0.0
2018-Apr-19 11:30N 49°01' W 123°09'0 0.0
2018-Apr-19 11:00N 49°01' W 123°09'0 0.0
2018-Apr-19 10:30N 49°01' W 123°09'0 0.0
2018-Apr-19 10:00N 49°01' W 123°09'0 0.0
2018-Apr-19 09:30N 49°01' W 123°09'0 0.0
2018-Apr-19 09:00N 49°01' W 123°09'0 0.0
2018-Apr-19 08:30N 49°01' W 123°09'0 0.0
2018-Apr-19 08:00N 49°01' W 123°09'0 0.0
2018-Apr-19 07:30N 49°01' W 123°09'0 0.0
2018-Apr-19 07:00N 49°01' W 123°09'0 0.0
2018-Apr-19 06:30N 49°01' W 123°09'0 0.0
2018-Apr-19 06:00N 49°01' W 123°09'0 0.0
2018-Apr-19 05:30N 49°01' W 123°09'0 0.0
2018-Apr-19 05:00N 49°01' W 123°09'0 0.0
2018-Apr-19 04:30N 49°01' W 123°09'0 0.0
2018-Apr-19 04:00N 49°01' W 123°09'0 0.0
2018-Apr-19 03:30N 49°01' W 123°09'0 0.0
2018-Apr-19 03:00N 49°01' W 123°09'0 0.0
2018-Apr-19 02:30N 49°01' W 123°09'0 0.0
2018-Apr-19 02:00N 49°01' W 123°09'0 0.0
2018-Apr-19 01:30N 49°01' W 123°09'0 0.1
2018-Apr-19 01:00N 49°01' W 123°09'1 2.3
2018-Apr-19 00:30N 48°60' W 123°10'4 9.0
2018-Apr-19 00:01N 48°56' W 123°07'815.5
2018-Apr-18 23:30N 48°50' W 122°59'816.2
2018-Apr-18 23:00N 48°44' W 123°08'714.4
2018-Apr-18 22:30N 48°45' W 123°19'713.1
2018-Apr-18 22:00N 48°43' W 123°28'4 7.7
2018-Apr-18 21:30N 48°44' W 123°34'0 0.1
2018-Apr-18 20:58N 48°44' W 123°33'0 0.1
2018-Apr-18 20:28N 48°44' W 123°33'0 0.0
2018-Apr-18 19:58N 48°44' W 123°33'0 0.1
2018-Apr-18 19:28N 48°44' W 123°33'0 0.0
2018-Apr-18 18:58N 48°44' W 123°33'0 0.0
2018-Apr-18 18:28N 48°44' W 123°33'0 0.0
2018-Apr-18 17:58N 48°44' W 123°33'0 0.1
2018-Apr-18 17:28N 48°44' W 123°33'0 0.0
2018-Apr-18 16:58N 48°44' W 123°33'0 0.1
2018-Apr-18 16:28N 48°44' W 123°33'0 0.1
2018-Apr-18 15:58N 48°44' W 123°33'0 0.1
2018-Apr-18 15:28N 48°44' W 123°33'0 0.1
2018-Apr-18 14:58N 48°44' W 123°33'0 0.1
2018-Apr-18 14:28N 48°44' W 123°33'0 0.1
2018-Apr-18 13:58N 48°44' W 123°33'0 0.0
2018-Apr-18 13:28N 48°44' W 123°33'0 0.0
2018-Apr-18 12:58N 48°44' W 123°33'0 0.0
2018-Apr-18 12:28N 48°44' W 123°33'0 0.0
2018-Apr-18 11:58N 48°44' W 123°33'0 0.1
2018-Apr-18 11:28N 48°44' W 123°33'0 0.1
2018-Apr-18 10:58N 48°44' W 123°33'0 0.1
2018-Apr-18 10:28N 48°44' W 123°33'0 0.1
2018-Apr-18 09:58N 48°44' W 123°33'0 0.1
2018-Apr-18 09:28N 48°44' W 123°33'0 0.0
2018-Apr-18 08:58N 48°44' W 123°33'0 0.0
2018-Apr-18 08:28N 48°44' W 123°33'0 0.0
2018-Apr-18 07:58N 48°44' W 123°33'0 0.0
2018-Apr-18 07:28N 48°44' W 123°33'0 0.1
2018-Apr-18 06:58N 48°44' W 123°33'0 0.0
2018-Apr-18 06:28N 48°44' W 123°33'0 0.0
2018-Apr-18 05:58N 48°44' W 123°33'0 0.1
2018-Apr-18 05:28N 48°44' W 123°33'0 0.1
2018-Apr-18 04:58N 48°44' W 123°33'0 0.1
2018-Apr-18 04:28N 48°44' W 123°33'0 0.1
2018-Apr-18 03:58N 48°44' W 123°33'0 0.0
2018-Apr-18 03:28N 48°44' W 123°33'0 0.0
2018-Apr-18 02:58N 48°44' W 123°33'0 0.1
2018-Apr-18 02:28N 48°44' W 123°33'0 0.1
2018-Apr-18 01:58N 48°44' W 123°33'0 0.0
2018-Apr-18 01:28N 48°44' W 123°33'0 0.0
2018-Apr-18 00:58N 48°44' W 123°33'0 0.1
2018-Apr-18 00:28N 48°44' W 123°33'0 0.1
2018-Apr-17 23:58N 48°44' W 123°33'0 0.1
2018-Apr-17 23:28N 48°44' W 123°33'0 0.0
2018-Apr-17 22:58N 48°44' W 123°33'0 0.1
2018-Apr-17 22:28N 48°44' W 123°33'0 0.1
2018-Apr-17 21:58N 48°44' W 123°33'0 0.1
2018-Apr-17 21:28N 48°44' W 123°33'0 0.0
2018-Apr-17 20:58N 48°44' W 123°33'0 0.1
2018-Apr-17 20:28N 48°44' W 123°33'0 0.0
2018-Apr-17 19:58N 48°44' W 123°33'0 0.1
2018-Apr-17 19:28N 48°44' W 123°33'0 0.1
2018-Apr-17 18:58N 48°44' W 123°33'0 0.0
2018-Apr-17 18:28N 48°44' W 123°33'0 0.1
2018-Apr-17 17:58N 48°44' W 123°33'0 0.1
2018-Apr-17 17:28N 48°44' W 123°33'0 0.1
2018-Apr-17 16:58N 48°44' W 123°33'0 0.0
2018-Apr-17 16:28N 48°44' W 123°33'0 0.1
2018-Apr-17 15:58N 48°44' W 123°33'0 0.1
2018-Apr-17 15:28N 48°44' W 123°33'0 0.1
2018-Apr-17 14:58N 48°44' W 123°33'0 0.0
2018-Apr-17 14:28N 48°44' W 123°33'0 0.1
2018-Apr-17 13:58N 48°44' W 123°33'0 0.0
2018-Apr-17 13:28N 48°44' W 123°33'0 0.0
2018-Apr-17 12:58N 48°44' W 123°33'0 0.0
2018-Apr-17 12:28N 48°44' W 123°33'0 0.1
2018-Apr-17 11:58N 48°44' W 123°33'0 0.0
2018-Apr-17 11:28N 48°44' W 123°33'0 0.1
2018-Apr-17 10:58N 48°44' W 123°33'0 0.0
2018-Apr-17 10:28N 48°44' W 123°33'0 0.0
2018-Apr-17 09:58N 48°44' W 123°33'0 0.0
2018-Apr-17 09:28N 48°44' W 123°33'0 0.1
2018-Apr-17 08:58N 48°44' W 123°33'0 0.0
2018-Apr-17 08:28N 48°44' W 123°33'0 0.0
2018-Apr-17 07:58N 48°44' W 123°33'0 0.0
2018-Apr-17 07:28N 48°44' W 123°33'0 0.0
2018-Apr-17 06:58N 48°44' W 123°33'0 0.1
2018-Apr-17 06:28N 48°44' W 123°33'0 0.0
2018-Apr-17 05:58N 48°44' W 123°33'0 0.0
2018-Apr-17 05:28N 48°44' W 123°33'0 0.0
2018-Apr-17 04:58N 48°44' W 123°33'0 0.1
2018-Apr-17 04:25N 48°44' W 123°33'0 0.1
2018-Apr-17 03:58N 48°44' W 123°33'0 0.1
2018-Apr-17 03:28N 48°44' W 123°33'0 0.1
2018-Apr-17 02:58N 48°44' W 123°33'0 0.0
2018-Apr-17 02:28N 48°44' W 123°33'0 0.1
2018-Apr-17 01:55N 48°44' W 123°33'0 0.0
2018-Apr-17 01:28N 48°44' W 123°33'0 0.2
2018-Apr-17 00:58N 48°44' W 123°33'0 0.2
2018-Apr-17 00:28N 48°44' W 123°34'0 0.1
2018-Apr-16 23:58N 48°44' W 123°34'0 0.0
2018-Apr-16 23:28N 48°44' W 123°34'0 0.1
2018-Apr-16 22:58N 48°44' W 123°34'0 0.2
2018-Apr-16 22:28N 48°44' W 123°33'0 0.1
2018-Apr-16 21:58N 48°44' W 123°33'0 0.0
2018-Apr-16 21:28N 48°44' W 123°33'0 0.0
2018-Apr-16 20:58N 48°44' W 123°33'0 0.0
2018-Apr-16 20:28N 48°44' W 123°33'0 0.0
2018-Apr-16 19:58N 48°44' W 123°33'0 0.0
2018-Apr-16 19:28N 48°44' W 123°33'0 0.0
2018-Apr-16 18:58N 48°44' W 123°33'0 0.0
2018-Apr-16 18:28N 48°44' W 123°33'0 0.1
2018-Apr-16 17:58N 48°44' W 123°33'0 0.0
2018-Apr-16 17:28N 48°44' W 123°33'0 0.0
2018-Apr-16 16:58N 48°44' W 123°33'0 0.0
2018-Apr-16 16:28N 48°44' W 123°33'0 0.1
2018-Apr-16 15:58N 48°44' W 123°33'0 0.2
2018-Apr-16 15:28N 48°44' W 123°33'0 0.1
2018-Apr-16 14:58N 48°44' W 123°33'0 0.1
2018-Apr-16 14:28N 48°44' W 123°33'0 0.1
2018-Apr-16 13:58N 48°44' W 123°33'0 0.0
2018-Apr-16 13:28N 48°44' W 123°33'0 0.1
2018-Apr-16 12:58N 48°44' W 123°33'0 0.0
2018-Apr-16 12:28N 48°44' W 123°33'0 0.0
2018-Apr-16 11:58N 48°44' W 123°33'0 0.0
2018-Apr-16 11:28N 48°44' W 123°33'0 0.1
2018-Apr-16 10:58N 48°44' W 123°33'0 0.0
2018-Apr-16 10:28N 48°44' W 123°33'0 0.0
2018-Apr-16 09:58N 48°44' W 123°33'0 0.0
2018-Apr-16 09:28N 48°44' W 123°33'0 0.0
2018-Apr-16 08:58N 48°44' W 123°33'0 0.1
2018-Apr-16 08:28N 48°44' W 123°33'0 0.0
2018-Apr-16 07:58N 48°44' W 123°33'0 0.0
2018-Apr-16 07:28N 48°44' W 123°33'0 0.0
2018-Apr-16 06:58N 48°44' W 123°33'0 0.1
2018-Apr-16 06:28N 48°44' W 123°33'0 0.0
2018-Apr-16 05:58N 48°44' W 123°33'0 0.1
2018-Apr-16 05:28N 48°44' W 123°33'0 0.0
2018-Apr-16 04:58N 48°44' W 123°33'0 0.1
2018-Apr-16 04:28N 48°44' W 123°33'0 0.0
2018-Apr-16 03:58N 48°44' W 123°33'0 0.0
2018-Apr-16 03:28N 48°44' W 123°33'0 0.1
2018-Apr-16 02:58N 48°44' W 123°33'0 0.0
2018-Apr-16 02:28N 48°44' W 123°33'0 0.0
2018-Apr-16 01:58N 48°44' W 123°33'0 0.0
2018-Apr-16 01:28N 48°44' W 123°33'0 0.1
2018-Apr-16 00:58N 48°44' W 123°33'0 0.0
2018-Apr-16 00:28N 48°44' W 123°33'0 0.1
2018-Apr-15 23:58N 48°44' W 123°33'0 0.1
2018-Apr-15 23:28N 48°44' W 123°33'0 0.0
2018-Apr-15 22:58N 48°44' W 123°33'0 0.1
2018-Apr-15 22:28N 48°44' W 123°33'0 0.0
2018-Apr-15 21:58N 48°44' W 123°33'0 0.1
2018-Apr-15 21:28N 48°44' W 123°33'0 0.0
2018-Apr-15 20:58N 48°44' W 123°33'0 0.0
2018-Apr-15 20:25N 48°44' W 123°33'0 0.0
2018-Apr-15 19:58N 48°44' W 123°33'0 0.0
2018-Apr-15 19:28N 48°44' W 123°33'0 0.0
2018-Apr-15 18:58N 48°44' W 123°33'0 0.1
2018-Apr-15 18:28N 48°44' W 123°33'0 0.1
2018-Apr-15 17:58N 48°44' W 123°33'0 0.0
2018-Apr-15 17:28N 48°44' W 123°33'0 0.1
2018-Apr-15 16:58N 48°44' W 123°33'0 0.0
2018-Apr-15 16:28N 48°44' W 123°33'0 0.0
2018-Apr-15 15:58N 48°44' W 123°33'0 0.1
2018-Apr-15 15:28N 48°44' W 123°33'0 0.0
2018-Apr-15 14:58N 48°44' W 123°33'0 0.0
2018-Apr-15 14:28N 48°44' W 123°33'0 0.1
2018-Apr-15 13:58N 48°44' W 123°33'0 0.0
2018-Apr-15 13:28N 48°44' W 123°33'0 0.0
2018-Apr-15 12:58N 48°44' W 123°33'0 0.0
2018-Apr-15 12:28N 48°44' W 123°33'0 0.0
2018-Apr-15 11:58N 48°44' W 123°33'  

Dump ship's entire track history